Decoded Metar for CYWK (WABUSH in NL, CANADA) (IATA:YWK) | Meteo·Mobile Aviation Weather
aviador You're here:

CYWK Decoded Metar

WABUSH in NL, CANADA
Report Time2019-07-23 03:00:00
UTC Time2019-07-23 03:19:53
Flight Rules vfr VFR
Wind190° at 04 kt
W.Decomp.*RWY 18: 3.4 kt HW 2.1 kt RCW
Visibility9999 m
Phenomena:N/A
Clouds:Broken 048 Hf
Overcast 060 Hf
Expected CloudBase > 1,600 ft AGL from Temp-Dew spread
Ceiling4,800 ft
Temp12°C (ISA +1)
Dew Point08°C (77% RH)
AAT10.1°C
QNH1007 hPa
Density Alt2,234 ft
Elevation1,808 ft
Report Wrong Elevation
Raw Report
CYWK 230300Z AUTO 19004KT 9SM BKN048 OVC060 12/08 A2974 RMK SLP083
DENSITY ALT 2000FT=

Extra information for CYWK:More info

Metar Taf Metar & Taf Last 4 Metars F.Rules Stats Wind Profile Meteogram Temp Stats Airport Information Weather charts Add Link Nearby VenuesMetar ALERT Operation Metar Decoded Social comments